createdAt,value
2022-10-29T00:00:51.326Z,5.93
2022-10-29T00:03:54.446Z,5.87
2022-10-29T00:06:58.633Z,5.70
2022-10-29T00:10:02.275Z,5.30
2022-10-29T00:13:05.278Z,5.60
2022-10-29T00:16:09.625Z,5.70
2022-10-29T00:19:12.601Z,5.77
2022-10-29T00:22:16.790Z,6.10
2022-10-29T00:25:19.873Z,4.93
2022-10-29T00:28:22.559Z,5.93
2022-10-29T00:31:26.226Z,5.70
2022-10-29T00:34:29.969Z,5.57
2022-10-29T00:37:34.347Z,5.83
2022-10-29T00:40:38.579Z,5.10
2022-10-29T00:43:47.926Z,5.67
2022-10-29T00:46:53.725Z,5.70
2022-10-29T00:50:00.890Z,5.77
2022-10-29T00:53:05.508Z,5.27
2022-10-29T00:56:08.811Z,5.80
2022-10-29T00:59:11.860Z,5.50
2022-10-29T01:02:15.923Z,5.37
2022-10-29T01:05:22.781Z,6.33
2022-10-29T01:08:26.941Z,7.33
2022-10-29T01:11:40.953Z,7.37
2022-10-29T01:14:53.032Z,7.20
2022-10-29T01:18:11.212Z,7.27
2022-10-29T01:21:40.575Z,6.53
2022-10-29T01:25:04.684Z,6.43
2022-10-29T01:28:25.986Z,6.77
2022-10-29T01:31:36.759Z,7.10
2022-10-29T01:34:45.912Z,6.50
2022-10-29T01:38:00.141Z,7.30
2022-10-29T01:41:10.100Z,7.20
2022-10-29T01:44:22.223Z,6.90
2022-10-29T01:47:30.632Z,6.53
2022-10-29T01:50:36.591Z,6.90
2022-10-29T01:53:40.574Z,7.53
2022-10-29T01:56:43.313Z,6.90
2022-10-29T01:59:55.608Z,6.40
2022-10-29T02:03:17.057Z,6.50
2022-10-29T02:06:34.078Z,6.33
2022-10-29T02:09:45.975Z,6.20
2022-10-29T02:12:52.573Z,6.03
2022-10-29T02:15:57.975Z,6.13
2022-10-29T02:19:02.993Z,5.80
2022-10-29T02:22:07.321Z,5.87
2022-10-29T02:25:11.663Z,6.47
2022-10-29T02:28:14.836Z,6.63
2022-10-29T02:31:17.602Z,5.70
2022-10-29T02:34:23.939Z,5.80
2022-10-29T02:37:27.133Z,5.40
2022-10-29T02:40:29.922Z,5.63
2022-10-29T02:43:33.096Z,5.27
2022-10-29T02:46:39.937Z,5.60
2022-10-29T02:49:44.052Z,6.00
2022-10-29T02:52:47.202Z,5.70
2022-10-29T02:55:49.888Z,5.97
2022-10-29T02:58:52.663Z,5.67
2022-10-29T03:01:55.444Z,4.87
2022-10-29T03:04:59.578Z,5.90
2022-10-29T03:08:03.260Z,7.17
2022-10-29T03:11:07.067Z,5.60
2022-10-29T03:14:09.754Z,5.37
2022-10-29T03:17:13.048Z,5.17
2022-10-29T03:20:17.743Z,5.37
2022-10-29T03:23:21.092Z,5.37
2022-10-29T03:26:23.796Z,5.33
2022-10-29T03:29:26.937Z,5.20
2022-10-29T03:32:29.653Z,4.70
2022-10-29T03:35:34.475Z,5.90
2022-10-29T03:38:37.262Z,5.60
2022-10-29T03:41:40.429Z,5.57
2022-10-29T03:44:43.166Z,5.93
2022-10-29T03:47:45.902Z,5.07
2022-10-29T03:50:56.763Z,5.63
2022-10-29T03:53:59.504Z,4.37
2022-10-29T03:57:03.773Z,4.57
2022-10-29T04:00:07.668Z,5.43
2022-10-29T04:03:10.423Z,5.10
2022-10-29T04:06:16.155Z,5.40
2022-10-29T04:09:19.302Z,5.53
2022-10-29T04:12:22.291Z,6.20
2022-10-29T04:15:25.410Z,6.93
2022-10-29T04:18:28.107Z,5.60
2022-10-29T04:23:25.421Z,6.10
2022-10-29T04:28:42.431Z,7.70
2022-10-29T04:31:41.039Z,7.07
2022-10-29T04:34:43.729Z,6.60
2022-10-29T04:37:48.291Z,7.10
2022-10-29T04:40:51.130Z,5.70
2022-10-29T04:43:54.212Z,6.30
2022-10-29T04:46:56.968Z,6.63
2022-10-29T04:50:00.125Z,6.77
2022-10-29T04:53:06.826Z,6.57
2022-10-29T04:56:10.018Z,7.50
2022-10-29T04:59:13.537Z,7.07
2022-10-29T05:02:16.250Z,6.07
2022-10-29T05:05:20.845Z,5.37
2022-10-29T05:08:24.946Z,5.50
2022-10-29T05:11:27.708Z,5.70
2022-10-29T05:14:30.851Z,5.23
2022-10-29T05:17:37.891Z,5.33
2022-10-29T05:20:41.117Z,5.43
2022-10-29T05:23:45.230Z,4.90
2022-10-29T05:26:47.976Z,5.23
2022-10-29T05:29:51.106Z,4.70
2022-10-29T05:32:54.318Z,5.20
2022-10-29T05:35:57.518Z,5.53
2022-10-29T05:39:02.082Z,6.47
2022-10-29T05:42:04.972Z,5.93
2022-10-29T05:45:09.181Z,6.03
2022-10-29T05:48:13.605Z,5.83
2022-10-29T05:51:16.340Z,6.57
2022-10-29T05:54:20.804Z,6.80
2022-10-29T05:57:23.542Z,6.07
2022-10-29T06:00:27.093Z,5.83
2022-10-29T06:03:29.938Z,5.60
2022-10-29T06:06:32.819Z,5.37
2022-10-29T06:09:37.015Z,5.13
2022-10-29T06:12:39.740Z,5.70
2022-10-29T06:15:43.186Z,6.40
2022-10-29T06:18:45.878Z,5.63
2022-10-29T06:21:48.769Z,6.13
2022-10-29T06:24:52.842Z,5.97
2022-10-29T06:28:02.057Z,5.47
2022-10-29T06:31:05.069Z,5.80
2022-10-29T06:34:07.869Z,5.57
2022-10-29T06:37:10.606Z,5.73
2022-10-29T06:40:15.073Z,5.07
2022-10-29T06:43:17.801Z,4.93
2022-10-29T06:46:20.870Z,5.17
2022-10-29T06:49:23.812Z,4.63
2022-10-29T06:52:27.020Z,5.27
2022-10-29T06:55:31.409Z,5.00
2022-10-29T06:58:34.252Z,5.83
2022-10-29T07:01:37.215Z,5.73
2022-10-29T07:04:40.023Z,5.90
2022-10-29T07:07:42.882Z,5.53
2022-10-29T07:10:47.000Z,5.50
2022-10-29T07:13:49.826Z,5.20
2022-10-29T07:16:52.633Z,5.33
2022-10-29T07:19:55.614Z,5.53
2022-10-29T07:22:59.310Z,6.03
2022-10-29T07:26:03.724Z,6.40
2022-10-29T07:29:06.772Z,6.57
2022-10-29T07:32:09.524Z,5.50
2022-10-29T07:35:12.255Z,4.40
2022-10-29T07:38:15.049Z,4.83
2022-10-29T07:41:19.113Z,4.20
2022-10-29T07:44:21.970Z,5.13
2022-10-29T07:47:24.919Z,4.60
2022-10-29T07:50:28.151Z,4.53
2022-10-29T07:53:32.857Z,4.77
2022-10-29T07:56:37.068Z,5.73
2022-10-29T07:59:39.767Z,4.93
2022-10-29T08:02:42.882Z,4.87
2022-10-29T08:05:48.944Z,4.83
2022-10-29T08:08:53.658Z,4.53
2022-10-29T08:11:57.883Z,4.73
2022-10-29T08:15:00.536Z,4.73
2022-10-29T08:18:05.004Z,6.47
2022-10-29T08:21:08.171Z,5.47
2022-10-29T08:24:11.284Z,4.60
2022-10-29T08:27:15.361Z,4.30
2022-10-29T08:30:18.221Z,5.37
2022-10-29T08:33:21.227Z,4.90
2022-10-29T08:36:23.947Z,4.17
2022-10-29T08:39:27.291Z,4.90
2022-10-29T08:42:43.798Z,4.30
2022-10-29T08:45:48.937Z,4.20
2022-10-29T08:48:55.832Z,4.70
2022-10-29T08:52:05.032Z,4.80
2022-10-29T08:55:13.960Z,4.30
2022-10-29T08:58:29.310Z,3.60
2022-10-29T09:01:32.395Z,3.93
2022-10-29T09:04:37.026Z,4.87
2022-10-29T09:07:57.114Z,4.80
2022-10-29T09:11:13.122Z,5.07
2022-10-29T09:14:33.985Z,4.73
2022-10-29T09:17:43.996Z,4.70
2022-10-29T09:20:53.683Z,4.60
2022-10-29T09:24:03.067Z,4.40
2022-10-29T09:27:18.364Z,4.33
2022-10-29T09:30:22.111Z,4.30
2022-10-29T09:33:25.785Z,4.40
2022-10-29T09:36:32.111Z,4.27
2022-10-29T09:39:40.939Z,4.20
2022-10-29T09:42:48.091Z,4.37
2022-10-29T09:46:02.606Z,4.60
2022-10-29T09:49:16.321Z,5.00
2022-10-29T09:52:21.913Z,4.87
2022-10-29T09:55:27.710Z,2.80
2022-10-29T09:58:31.999Z,4.10
2022-10-29T10:01:34.790Z,4.33
2022-10-29T10:04:46.283Z,4.67
2022-10-29T10:08:07.337Z,4.37
2022-10-29T10:11:20.784Z,4.23
2022-10-29T10:14:26.647Z,4.20
2022-10-29T10:17:29.378Z,4.60
2022-10-29T10:20:38.888Z,4.33
2022-10-29T10:23:44.997Z,4.33
2022-10-29T10:26:47.900Z,4.20
2022-10-29T10:30:12.283Z,4.17
2022-10-29T10:33:26.635Z,3.90
2022-10-29T10:36:30.858Z,4.50
2022-10-29T10:39:38.084Z,4.23
2022-10-29T10:42:47.113Z,4.13
2022-10-29T10:45:57.775Z,3.63
2022-10-29T10:49:03.754Z,4.23
2022-10-29T10:52:15.135Z,4.37
2022-10-29T10:55:24.329Z,3.83
2022-10-29T10:58:32.262Z,4.30
2022-10-29T11:01:43.743Z,3.37
2022-10-29T11:04:51.450Z,4.23
2022-10-29T11:08:01.998Z,3.87
2022-10-29T11:11:10.023Z,4.23
2022-10-29T11:14:19.132Z,3.83
2022-10-29T11:17:30.050Z,3.80
2022-10-29T11:20:36.611Z,3.93
2022-10-29T11:23:49.581Z,3.67
2022-10-29T11:26:57.618Z,3.73
2022-10-29T11:30:04.940Z,3.77
2022-10-29T11:33:19.828Z,3.90
2022-10-29T11:36:25.079Z,4.03
2022-10-29T11:39:32.956Z,3.80
2022-10-29T11:42:36.253Z,4.40
2022-10-29T11:45:51.132Z,4.13
2022-10-29T11:49:04.991Z,4.10
2022-10-29T11:52:11.066Z,3.93
2022-10-29T11:55:26.810Z,4.30
2022-10-29T11:58:39.702Z,3.83
2022-10-29T12:01:52.957Z,4.23
2022-10-29T12:05:03.450Z,4.10
2022-10-29T12:08:22.469Z,4.17
2022-10-29T12:11:33.092Z,3.80
2022-10-29T12:14:42.200Z,3.80
2022-10-29T12:17:54.941Z,4.20
2022-10-29T12:21:08.428Z,3.60
2022-10-29T12:24:26.778Z,3.70
2022-10-29T12:27:39.950Z,4.43
2022-10-29T12:30:50.324Z,4.30
2022-10-29T12:34:00.489Z,4.30
2022-10-29T12:37:12.653Z,4.40
2022-10-29T12:40:21.587Z,4.43
2022-10-29T12:43:28.723Z,4.00
2022-10-29T12:46:38.362Z,4.40
2022-10-29T12:49:51.372Z,4.03
2022-10-29T12:53:03.224Z,4.47
2022-10-29T12:56:08.654Z,4.07
2022-10-29T12:59:32.782Z,4.10
2022-10-29T13:02:45.859Z,4.10
2022-10-29T13:05:48.640Z,3.87
2022-10-29T13:08:57.738Z,4.80
2022-10-29T13:12:02.455Z,4.70
2022-10-29T13:15:15.336Z,3.50
2022-10-29T13:18:23.454Z,3.70
2022-10-29T13:21:58.169Z,3.30
2022-10-29T13:25:30.720Z,4.17
2022-10-29T13:28:53.621Z,4.27
2022-10-29T13:32:00.662Z,4.13
2022-10-29T13:35:42.480Z,4.43
2022-10-29T13:38:58.596Z,4.20
2022-10-29T13:42:13.908Z,4.37
2022-10-29T13:45:17.161Z,4.63
2022-10-29T13:48:26.874Z,4.23
2022-10-29T13:51:36.076Z,4.23
2022-10-29T13:54:43.178Z,4.23
2022-10-29T13:58:00.307Z,3.70
2022-10-29T14:01:09.886Z,3.70
2022-10-29T14:04:23.823Z,7.73
2022-10-29T14:07:32.291Z,5.47
2022-10-29T14:10:43.590Z,4.27
2022-10-29T14:13:49.886Z,4.17
2022-10-29T14:17:10.405Z,4.00
2022-10-29T14:20:21.827Z,4.77
2022-10-29T14:23:25.361Z,4.00
2022-10-29T14:26:29.944Z,3.93
2022-10-29T14:29:34.562Z,4.20
2022-10-29T14:32:39.377Z,4.60
2022-10-29T14:35:42.292Z,3.90
2022-10-29T14:38:48.674Z,4.30
2022-10-29T14:41:51.978Z,4.47
2022-10-29T14:44:58.807Z,4.20
2022-10-29T14:48:09.772Z,4.17
2022-10-29T14:51:20.301Z,4.10
2022-10-29T14:54:26.415Z,4.57
2022-10-29T14:57:33.570Z,4.53
2022-10-29T15:00:39.009Z,4.80
2022-10-29T15:03:42.044Z,4.17
2022-10-29T15:06:44.894Z,4.20
2022-10-29T15:09:47.816Z,4.57
2022-10-29T15:12:51.739Z,3.93
2022-10-29T15:16:00.061Z,4.40
2022-10-29T15:19:03.944Z,4.90
2022-10-29T15:22:10.002Z,5.00
2022-10-29T15:25:22.848Z,7.37
2022-10-29T15:28:28.618Z,6.33
2022-10-29T15:31:41.486Z,5.60
2022-10-29T15:34:49.406Z,5.37
2022-10-29T15:37:53.325Z,5.80
2022-10-29T15:41:31.300Z,8.03
2022-10-29T15:44:37.397Z,15.20
2022-10-29T15:47:43.370Z,10.90
2022-10-29T15:50:47.007Z,9.13
2022-10-29T15:53:49.793Z,7.83
2022-10-29T15:56:53.386Z,7.47
2022-10-29T15:59:57.291Z,7.10
2022-10-29T16:03:10.432Z,7.70
2022-10-29T16:06:13.867Z,7.10
2022-10-29T16:09:20.654Z,6.77
2022-10-29T16:12:23.461Z,6.63
2022-10-29T16:18:31.725Z,6.37
2022-10-29T16:21:34.886Z,6.57
2022-10-29T16:24:37.604Z,7.00
2022-10-29T16:27:41.572Z,5.97
2022-10-29T16:30:48.300Z,7.33
2022-10-29T16:33:54.699Z,13.13
2022-10-29T16:36:57.810Z,11.13
2022-10-29T16:40:00.498Z,10.73
2022-10-29T16:43:04.123Z,10.83
2022-10-29T16:46:07.159Z,6.30
2022-10-29T16:49:11.230Z,6.50
2022-10-29T16:52:18.890Z,7.40
2022-10-29T16:55:25.721Z,6.13
2022-10-29T16:58:28.979Z,6.10
2022-10-29T17:01:32.119Z,6.70
2022-10-29T17:04:36.317Z,7.17
2022-10-29T17:07:39.208Z,7.43
2022-10-29T17:10:42.544Z,6.67
2022-10-29T17:13:45.545Z,7.73
2022-10-29T17:16:48.695Z,7.37
2022-10-29T17:19:53.765Z,6.87
2022-10-29T17:22:57.058Z,6.90
2022-10-29T17:26:00.670Z,7.33
2022-10-29T17:29:03.998Z,13.90
2022-10-29T17:32:08.821Z,10.80
2022-10-29T17:35:13.537Z,7.80
2022-10-29T17:38:16.272Z,8.67
2022-10-29T17:41:19.514Z,8.50
2022-10-29T17:44:22.645Z,8.17
2022-10-29T17:47:25.991Z,6.73
2022-10-29T17:50:30.499Z,7.70
2022-10-29T17:53:33.220Z,7.13
2022-10-29T17:56:36.385Z,7.07
2022-10-29T17:59:39.443Z,6.57
2022-10-29T18:02:42.289Z,6.40
2022-10-29T18:05:47.420Z,7.00
2022-10-29T18:08:50.505Z,7.20
2022-10-29T18:11:53.233Z,8.13
2022-10-29T18:14:56.421Z,7.40
2022-10-29T18:18:00.738Z,9.20
2022-10-29T18:21:06.222Z,7.67
2022-10-29T18:24:09.624Z,7.03
2022-10-29T18:27:12.686Z,8.67
2022-10-29T18:30:16.107Z,7.50
2022-10-29T18:33:19.112Z,9.23
2022-10-29T18:36:23.219Z,7.40
2022-10-29T18:39:26.402Z,6.97
2022-10-29T18:42:30.233Z,8.73
2022-10-29T18:45:33.014Z,7.00
2022-10-29T18:48:39.191Z,8.27
2022-10-29T18:51:44.302Z,6.40
2022-10-29T18:54:47.116Z,9.30
2022-10-29T18:57:50.312Z,8.27
2022-10-29T19:00:53.377Z,8.73
2022-10-29T19:03:58.547Z,8.10
2022-10-29T19:07:03.294Z,8.77
2022-10-29T19:10:06.626Z,7.27
2022-10-29T19:13:10.318Z,8.17
2022-10-29T19:16:15.013Z,9.57
2022-10-29T19:19:21.212Z,9.20
2022-10-29T19:22:27.920Z,7.93
2022-10-29T19:25:33.906Z,9.00
2022-10-29T19:28:40.366Z,8.17
2022-10-29T19:31:45.876Z,8.43
2022-10-29T19:34:48.559Z,7.70
2022-10-29T19:37:53.983Z,8.23
2022-10-29T19:40:57.076Z,8.07
2022-10-29T19:44:02.041Z,8.07
2022-10-29T19:47:04.983Z,7.03
2022-10-29T19:50:10.717Z,7.37
2022-10-29T19:53:14.816Z,7.97
2022-10-29T19:56:18.778Z,7.50
2022-10-29T19:59:21.450Z,7.63
2022-10-29T20:02:25.612Z,8.30
2022-10-29T20:05:28.387Z,8.03
2022-10-29T20:08:32.902Z,10.70
2022-10-29T20:11:35.643Z,10.20
2022-10-29T20:14:38.852Z,11.20
2022-10-29T20:17:41.600Z,9.40
2022-10-29T20:20:44.839Z,13.70
2022-10-29T20:23:48.845Z,14.03
2022-10-29T20:26:52.026Z,10.03
2022-10-29T20:29:55.095Z,10.20
2022-10-29T20:32:58.305Z,9.70
2022-10-29T20:36:02.591Z,10.33
2022-10-29T20:39:07.411Z,10.23
2022-10-29T20:42:10.272Z,9.40
2022-10-29T20:45:12.983Z,8.87
2022-10-29T20:48:15.814Z,8.93
2022-10-29T20:51:18.670Z,9.53
2022-10-29T20:54:22.942Z,14.20
2022-10-29T20:57:25.632Z,10.70
2022-10-29T21:00:28.480Z,9.63
2022-10-29T21:03:31.157Z,10.07
2022-10-29T21:06:34.066Z,10.17
2022-10-29T21:09:38.133Z,9.30
2022-10-29T21:12:41.592Z,8.97
2022-10-29T21:15:44.231Z,8.73
2022-10-29T21:18:48.802Z,9.43
2022-10-29T21:21:51.587Z,8.50
2022-10-29T21:24:55.792Z,9.10
2022-10-29T21:27:58.796Z,10.03
2022-10-29T21:31:02.652Z,10.10
2022-10-29T21:34:05.362Z,9.60
2022-10-29T21:37:08.248Z,11.23
2022-10-29T21:40:13.310Z,11.83
2022-10-29T21:43:17.661Z,11.63
2022-10-29T21:46:20.364Z,12.13
2022-10-29T21:49:23.392Z,11.37
2022-10-29T21:52:26.408Z,10.40
2022-10-29T21:55:30.522Z,10.20
2022-10-29T21:58:33.655Z,11.43
2022-10-29T22:01:36.527Z,11.33
2022-10-29T22:04:39.299Z,11.60
2022-10-29T22:07:42.058Z,11.60
2022-10-29T22:10:46.097Z,11.63
2022-10-29T22:13:48.869Z,10.37
2022-10-29T22:16:51.540Z,11.30
2022-10-29T22:19:54.361Z,11.77
2022-10-29T22:22:57.349Z,10.70
2022-10-29T22:26:01.732Z,10.77
2022-10-29T22:29:04.544Z,10.93
2022-10-29T22:32:07.913Z,10.90
2022-10-29T22:35:10.618Z,11.47
2022-10-29T22:38:13.294Z,10.77
2022-10-29T22:41:18.598Z,10.43
2022-10-29T22:44:21.302Z,11.00
2022-10-29T22:47:24.183Z,9.37
2022-10-29T22:50:27.027Z,8.07
2022-10-29T22:53:29.735Z,8.30
2022-10-29T22:56:35.896Z,8.43
2022-10-29T22:59:39.010Z,7.87
2022-10-29T23:02:41.805Z,6.83
2022-10-29T23:05:44.543Z,6.87
2022-10-29T23:08:48.674Z,7.30
2022-10-29T23:11:52.907Z,8.90
2022-10-29T23:14:55.652Z,9.27
2022-10-29T23:17:59.089Z,7.30
2022-10-29T23:21:03.434Z,7.33
2022-10-29T23:24:06.967Z,8.77
2022-10-29T23:27:11.417Z,7.80
2022-10-29T23:30:14.633Z,8.37
2022-10-29T23:33:17.311Z,7.33
2022-10-29T23:36:23.051Z,7.93
2022-10-29T23:39:26.179Z,7.93
2022-10-29T23:42:30.270Z,7.40
2022-10-29T23:45:32.996Z,7.00
2022-10-29T23:48:35.793Z,7.93
2022-10-29T23:51:38.841Z,7.07
2022-10-29T23:54:41.905Z,7.90
2022-10-29T23:57:45.987Z,8.00
